sensor_id;sensor_type;location;lat;lon;timestamp;pressure;altitude;pressure_sealevel;temperature;humidity
79370;BME280;68835;53.096;17.932;2023-04-03T00:01:13;101969.48;;;-1.19;71.03
79370;BME280;68835;53.096;17.932;2023-04-03T00:03:40;101967.83;;;-1.20;70.79
79370;BME280;68835;53.096;17.932;2023-04-03T00:06:11;101966.06;;;-1.20;71.38
79370;BME280;68835;53.096;17.932;2023-04-03T00:08:39;101964.25;;;-1.22;71.37
79370;BME280;68835;53.096;17.932;2023-04-03T00:11:07;101965.60;;;-1.25;71.30
79370;BME280;68835;53.096;17.932;2023-04-03T00:13:35;101964.04;;;-1.25;71.33
79370;BME280;68835;53.096;17.932;2023-04-03T00:16:03;101963.23;;;-1.26;71.31
79370;BME280;68835;53.096;17.932;2023-04-03T00:18:30;101962.89;;;-1.29;71.65
79370;BME280;68835;53.096;17.932;2023-04-03T00:20:58;101962.72;;;-1.31;71.40
79370;BME280;68835;53.096;17.932;2023-04-03T00:23:25;101961.30;;;-1.34;71.43
79370;BME280;68835;53.096;17.932;2023-04-03T00:25:53;101961.00;;;-1.35;71.75
79370;BME280;68835;53.096;17.932;2023-04-03T00:28:20;101963.23;;;-1.31;70.88
79370;BME280;68835;53.096;17.932;2023-04-03T00:30:49;101963.33;;;-1.28;71.28
79370;BME280;68835;53.096;17.932;2023-04-03T00:33:17;101961.03;;;-1.26;71.34
79370;BME280;68835;53.096;17.932;2023-04-03T00:35:48;101958.14;;;-1.26;70.99
79370;BME280;68835;53.096;17.932;2023-04-03T00:38:17;101961.84;;;-1.27;71.59
79370;BME280;68835;53.096;17.932;2023-04-03T00:40:45;101960.71;;;-1.30;71.70
79370;BME280;68835;53.096;17.932;2023-04-03T00:43:21;101958.30;;;-1.33;71.64
79370;BME280;68835;53.096;17.932;2023-04-03T00:45:52;101959.79;;;-1.35;71.95
79370;BME280;68835;53.096;17.932;2023-04-03T00:48:23;101963.02;;;-1.38;71.54
79370;BME280;68835;53.096;17.932;2023-04-03T00:50:51;101961.60;;;-1.41;71.63
79370;BME280;68835;53.096;17.932;2023-04-03T00:53:23;101961.09;;;-1.45;71.64
79370;BME280;68835;53.096;17.932;2023-04-03T00:55:53;101965.39;;;-1.47;71.97
79370;BME280;68835;53.096;17.932;2023-04-03T00:58:31;101968.53;;;-1.49;71.89
79370;BME280;68835;53.096;17.932;2023-04-03T01:01:05;101967.36;;;-1.53;71.94
79370;BME280;68835;53.096;17.932;2023-04-03T01:03:33;101968.39;;;-1.55;72.16
79370;BME280;68835;53.096;17.932;2023-04-03T01:06:02;101970.73;;;-1.58;72.08
79370;BME280;68835;53.096;17.932;2023-04-03T01:08:30;101969.33;;;-1.56;72.13
79370;BME280;68835;53.096;17.932;2023-04-03T01:10:58;101969.09;;;-1.53;72.03
79370;BME280;68835;53.096;17.932;2023-04-03T01:13:31;101968.40;;;-1.50;72.31
79370;BME280;68835;53.096;17.932;2023-04-03T01:16:05;101971.14;;;-1.48;72.61
79370;BME280;68835;53.096;17.932;2023-04-03T01:18:36;101972.71;;;-1.48;72.39
79370;BME280;68835;53.096;17.932;2023-04-03T01:24:04;101977.20;;;-1.50;72.68
79370;BME280;68835;53.096;17.932;2023-04-03T01:26:36;101976.38;;;-1.52;72.49
79370;BME280;68835;53.096;17.932;2023-04-03T01:29:04;101974.89;;;-1.55;72.90
79370;BME280;68835;53.096;17.932;2023-04-03T01:31:46;101981.02;;;-1.56;72.72
79370;BME280;68835;53.096;17.932;2023-04-03T01:34:14;101982.00;;;-1.59;72.94
79370;BME280;68835;53.096;17.932;2023-04-03T01:36:41;101981.71;;;-1.62;72.76
79370;BME280;68835;53.096;17.932;2023-04-03T01:39:09;101987.92;;;-1.64;73.09
79370;BME280;68835;53.096;17.932;2023-04-03T01:41:36;101988.14;;;-1.65;73.10
79370;BME280;68835;53.096;17.932;2023-04-03T01:44:11;101988.38;;;-1.67;72.96
79370;BME280;68835;53.096;17.932;2023-04-03T01:46:38;101989.94;;;-1.64;72.96
79370;BME280;68835;53.096;17.932;2023-04-03T01:49:06;101991.13;;;-1.62;72.95
79370;BME280;68835;53.096;17.932;2023-04-03T01:51:33;101988.03;;;-1.60;72.85
79370;BME280;68835;53.096;17.932;2023-04-03T01:54:00;101988.14;;;-1.59;73.01
79370;BME280;68835;53.096;17.932;2023-04-03T01:56:28;101992.23;;;-1.57;73.07
79370;BME280;68835;53.096;17.932;2023-04-03T01:58:56;101992.27;;;-1.57;73.15
79370;BME280;68835;53.096;17.932;2023-04-03T02:01:24;101991.99;;;-1.56;73.03
79370;BME280;68835;53.096;17.932;2023-04-03T02:03:52;101993.34;;;-1.56;73.13
79370;BME280;68835;53.096;17.932;2023-04-03T02:06:20;101994.14;;;-1.57;73.03
79370;BME280;68835;53.096;17.932;2023-04-03T02:08:47;101992.21;;;-1.62;73.23
79370;BME280;68835;53.096;17.932;2023-04-03T02:11:15;101994.51;;;-1.65;73.00
79370;BME280;68835;53.096;17.932;2023-04-03T02:13:42;101993.71;;;-1.69;73.59
79370;BME280;68835;53.096;17.932;2023-04-03T02:16:10;101994.68;;;-1.72;73.40
79370;BME280;68835;53.096;17.932;2023-04-03T02:18:39;101993.16;;;-1.74;73.59
79370;BME280;68835;53.096;17.932;2023-04-03T02:21:06;101993.17;;;-1.78;73.36
79370;BME280;68835;53.096;17.932;2023-04-03T02:23:34;101994.56;;;-1.82;73.46
79370;BME280;68835;53.096;17.932;2023-04-03T02:26:09;101994.81;;;-1.86;73.45
79370;BME280;68835;53.096;17.932;2023-04-03T02:28:37;101996.28;;;-1.84;73.38
79370;BME280;68835;53.096;17.932;2023-04-03T02:31:05;101995.79;;;-1.82;73.63
79370;BME280;68835;53.096;17.932;2023-04-03T02:33:34;102000.82;;;-1.81;73.73
79370;BME280;68835;53.096;17.932;2023-04-03T02:36:06;102002.77;;;-1.80;73.09
79370;BME280;68835;53.096;17.932;2023-04-03T02:38:34;102005.69;;;-1.80;73.58
79370;BME280;68835;53.096;17.932;2023-04-03T02:41:11;102009.07;;;-1.81;73.63
79370;BME280;68835;53.096;17.932;2023-04-03T02:43:39;102009.89;;;-1.83;73.78
79370;BME280;68835;53.096;17.932;2023-04-03T02:46:07;102011.93;;;-1.88;73.92
79370;BME280;68835;53.096;17.932;2023-04-03T02:48:36;102015.44;;;-1.93;73.78
79370;BME280;68835;53.096;17.932;2023-04-03T02:51:03;102018.73;;;-1.97;74.05
79370;BME280;68835;53.096;17.932;2023-04-03T02:53:31;102020.30;;;-2.01;73.75
79370;BME280;68835;53.096;17.932;2023-04-03T02:55:59;102017.36;;;-2.04;74.19
79370;BME280;68835;53.096;17.932;2023-04-03T02:58:26;102020.20;;;-2.07;74.25
79370;BME280;68835;53.096;17.932;2023-04-03T03:00:54;102021.38;;;-2.09;74.27
79370;BME280;68835;53.096;17.932;2023-04-03T03:03:22;102018.02;;;-2.12;74.48
79370;BME280;68835;53.096;17.932;2023-04-03T03:05:49;102020.58;;;-2.13;74.12
79370;BME280;68835;53.096;17.932;2023-04-03T03:08:17;102021.07;;;-2.10;74.04
79370;BME280;68835;53.096;17.932;2023-04-03T03:10:47;102024.85;;;-2.11;74.19
79370;BME280;68835;53.096;17.932;2023-04-03T03:13:15;102026.27;;;-2.08;74.23
79370;BME280;68835;53.096;17.932;2023-04-03T03:15:42;102026.88;;;-2.09;74.13
79370;BME280;68835;53.096;17.932;2023-04-03T03:18:09;102027.79;;;-2.12;74.47
79370;BME280;68835;53.096;17.932;2023-04-03T03:20:37;102028.21;;;-2.18;74.39
79370;BME280;68835;53.096;17.932;2023-04-03T03:23:04;102025.88;;;-2.19;74.37
79370;BME280;68835;53.096;17.932;2023-04-03T03:25:31;102028.64;;;-2.21;74.45
79370;BME280;68835;53.096;17.932;2023-04-03T03:27:59;102025.78;;;-2.25;74.46
79370;BME280;68835;53.096;17.932;2023-04-03T03:30:26;102028.95;;;-2.28;74.58
79370;BME280;68835;53.096;17.932;2023-04-03T03:32:53;102031.08;;;-2.31;75.06
79370;BME280;68835;53.096;17.932;2023-04-03T03:35:21;102031.98;;;-2.35;75.32
79370;BME280;68835;53.096;17.932;2023-04-03T03:37:48;102032.29;;;-2.37;75.27
79370;BME280;68835;53.096;17.932;2023-04-03T03:40:16;102035.97;;;-2.38;75.13
79370;BME280;68835;53.096;17.932;2023-04-03T03:42:43;102036.86;;;-2.36;75.28
79370;BME280;68835;53.096;17.932;2023-04-03T03:45:10;102038.09;;;-2.33;75.10
79370;BME280;68835;53.096;17.932;2023-04-03T03:47:38;102038.11;;;-2.31;74.83
79370;BME280;68835;53.096;17.932;2023-04-03T03:50:06;102040.58;;;-2.28;75.63
79370;BME280;68835;53.096;17.932;2023-04-03T03:52:33;102039.59;;;-2.25;75.06
79370;BME280;68835;53.096;17.932;2023-04-03T03:55:00;102041.81;;;-2.23;75.27
79370;BME280;68835;53.096;17.932;2023-04-03T03:57:28;102043.98;;;-2.24;75.50
79370;BME280;68835;53.096;17.932;2023-04-03T03:59:56;102048.92;;;-2.25;75.14
79370;BME280;68835;53.096;17.932;2023-04-03T04:02:23;102049.36;;;-2.26;75.46
79370;BME280;68835;53.096;17.932;2023-04-03T04:04:51;102050.77;;;-2.27;75.16
79370;BME280;68835;53.096;17.932;2023-04-03T04:07:18;102053.54;;;-2.29;75.48
79370;BME280;68835;53.096;17.932;2023-04-03T04:09:46;102052.88;;;-2.31;75.49
79370;BME280;68835;53.096;17.932;2023-04-03T04:12:13;102057.27;;;-2.33;75.46
79370;BME280;68835;53.096;17.932;2023-04-03T04:14:40;102061.44;;;-2.37;75.68
79370;BME280;68835;53.096;17.932;2023-04-03T04:17:08;102061.05;;;-2.40;75.50
79370;BME280;68835;53.096;17.932;2023-04-03T04:19:37;102065.35;;;-2.40;75.44
79370;BME280;68835;53.096;17.932;2023-04-03T04:22:05;102067.36;;;-2.36;75.36
79370;BME280;68835;53.096;17.932;2023-04-03T04:24:32;102071.63;;;-2.32;75.32
79370;BME280;68835;53.096;17.932;2023-04-03T04:27:00;102073.54;;;-2.30;75.55
79370;BME280;68835;53.096;17.932;2023-04-03T04:29:28;102075.89;;;-2.26;75.42
79370;BME280;68835;53.096;17.932;2023-04-03T04:31:55;102073.90;;;-2.25;75.23
79370;BME280;68835;53.096;17.932;2023-04-03T04:34:23;102074.31;;;-2.25;75.51
79370;BME280;68835;53.096;17.932;2023-04-03T04:36:50;102075.91;;;-2.22;75.89
79370;BME280;68835;53.096;17.932;2023-04-03T04:39:17;102071.88;;;-2.23;75.56
79370;BME280;68835;53.096;17.932;2023-04-03T04:41:45;102073.64;;;-2.24;75.48
79370;BME280;68835;53.096;17.932;2023-04-03T04:44:12;102073.38;;;-2.25;75.47
79370;BME280;68835;53.096;17.932;2023-04-03T04:46:40;102076.70;;;-2.27;75.40
79370;BME280;68835;53.096;17.932;2023-04-03T04:49:07;102077.87;;;-2.29;75.68
79370;BME280;68835;53.096;17.932;2023-04-03T04:51:35;102082.21;;;-2.31;75.70
79370;BME280;68835;53.096;17.932;2023-04-03T04:54:03;102082.29;;;-2.31;75.43
79370;BME280;68835;53.096;17.932;2023-04-03T04:56:31;102086.98;;;-2.31;75.60
79370;BME280;68835;53.096;17.932;2023-04-03T04:59:01;102091.71;;;-2.32;75.88
79370;BME280;68835;53.096;17.932;2023-04-03T05:01:29;102092.34;;;-2.26;75.74
79370;BME280;68835;53.096;17.932;2023-04-03T05:04:09;102098.75;;;-2.19;75.77
79370;BME280;68835;53.096;17.932;2023-04-03T05:06:37;102097.63;;;-2.14;75.30
79370;BME280;68835;53.096;17.932;2023-04-03T05:09:07;102097.28;;;-2.08;75.38
79370;BME280;68835;53.096;17.932;2023-04-03T05:11:37;102099.63;;;-2.02;75.28
79370;BME280;68835;53.096;17.932;2023-04-03T05:14:05;102097.98;;;-1.99;75.20
79370;BME280;68835;53.096;17.932;2023-04-03T05:16:34;102103.87;;;-1.97;75.01
79370;BME280;68835;53.096;17.932;2023-04-03T05:19:02;102103.36;;;-1.94;75.18
79370;BME280;68835;53.096;17.932;2023-04-03T05:21:30;102103.89;;;-1.92;75.41
79370;BME280;68835;53.096;17.932;2023-04-03T05:24:00;102103.22;;;-1.90;75.11
79370;BME280;68835;53.096;17.932;2023-04-03T05:26:30;102104.31;;;-1.87;75.14
79370;BME280;68835;53.096;17.932;2023-04-03T05:28:58;102103.39;;;-1.84;75.11
79370;BME280;68835;53.096;17.932;2023-04-03T05:31:26;102103.88;;;-1.78;74.80
79370;BME280;68835;53.096;17.932;2023-04-03T05:33:57;102108.20;;;-1.73;75.15
79370;BME280;68835;53.096;17.932;2023-04-03T05:36:25;102105.33;;;-1.72;74.98
79370;BME280;68835;53.096;17.932;2023-04-03T05:38:55;102105.80;;;-1.68;74.86
79370;BME280;68835;53.096;17.932;2023-04-03T05:41:24;102105.93;;;-1.65;74.77
79370;BME280;68835;53.096;17.932;2023-04-03T05:43:51;102108.73;;;-1.56;74.16
79370;BME280;68835;53.096;17.932;2023-04-03T05:46:20;102104.35;;;-1.44;74.52
79370;BME280;68835;53.096;17.932;2023-04-03T05:48:50;102110.73;;;-1.33;74.11
79370;BME280;68835;53.096;17.932;2023-04-03T05:51:25;102112.83;;;-1.21;74.38
79370;BME280;68835;53.096;17.932;2023-04-03T05:56:42;102108.96;;;-1.05;73.99
79370;BME280;68835;53.096;17.932;2023-04-03T05:59:09;102109.30;;;-0.99;73.59
79370;BME280;68835;53.096;17.932;2023-04-03T06:01:37;102108.46;;;-0.94;73.21
79370;BME280;68835;53.096;17.932;2023-04-03T06:04:05;102108.54;;;-0.87;72.77
79370;BME280;68835;53.096;17.932;2023-04-03T06:07:02;102113.80;;;-0.74;73.11
79370;BME280;68835;53.096;17.932;2023-04-03T06:09:30;102107.34;;;-0.55;72.27
79370;BME280;68835;53.096;17.932;2023-04-03T06:11:57;102111.43;;;-0.38;71.46
79370;BME280;68835;53.096;17.932;2023-04-03T06:14:26;102117.09;;;-0.22;71.49
79370;BME280;68835;53.096;17.932;2023-04-03T06:16:53;102114.34;;;-0.08;70.65
79370;BME280;68835;53.096;17.932;2023-04-03T06:19:21;102120.39;;;0.04;70.57
79370;BME280;68835;53.096;17.932;2023-04-03T06:21:52;102122.91;;;0.19;70.51
79370;BME280;68835;53.096;17.932;2023-04-03T06:24:19;102123.88;;;0.37;69.70
79370;BME280;68835;53.096;17.932;2023-04-03T06:26:48;102126.08;;;0.51;69.07
79370;BME280;68835;53.096;17.932;2023-04-03T06:29:19;102127.69;;;0.57;67.82
79370;BME280;68835;53.096;17.932;2023-04-03T06:31:46;102128.19;;;0.61;68.00
79370;BME280;68835;53.096;17.932;2023-04-03T06:34:14;102133.88;;;0.68;67.68
79370;BME280;68835;53.096;17.932;2023-04-03T06:36:42;102131.77;;;0.75;67.36
79370;BME280;68835;53.096;17.932;2023-04-03T06:39:15;102135.69;;;0.79;67.29
79370;BME280;68835;53.096;17.932;2023-04-03T06:41:43;102134.80;;;0.84;67.49
79370;BME280;68835;53.096;17.932;2023-04-03T06:44:12;102138.38;;;0.87;66.34
79370;BME280;68835;53.096;17.932;2023-04-03T06:46:43;102133.30;;;0.91;66.36
79370;BME280;68835;53.096;17.932;2023-04-03T06:49:12;102140.20;;;0.94;65.84
79370;BME280;68835;53.096;17.932;2023-04-03T06:51:40;102142.00;;;1.00;65.61
79370;BME280;68835;53.096;17.932;2023-04-03T06:54:07;102143.23;;;1.08;65.00
79370;BME280;68835;53.096;17.932;2023-04-03T06:56:35;102147.07;;;1.18;65.12
79370;BME280;68835;53.096;17.932;2023-04-03T06:59:03;102152.45;;;1.38;65.16
79370;BME280;68835;53.096;17.932;2023-04-03T07:01:30;102146.49;;;1.57;63.38
79370;BME280;68835;53.096;17.932;2023-04-03T07:03:58;102157.10;;;1.68;63.24
79370;BME280;68835;53.096;17.932;2023-04-03T07:06:26;102157.52;;;1.81;62.41
79370;BME280;68835;53.096;17.932;2023-04-03T07:08:56;102163.94;;;1.95;62.26
79370;BME280;68835;53.096;17.932;2023-04-03T07:11:24;102157.45;;;1.98;61.69
79370;BME280;68835;53.096;17.932;2023-04-03T07:13:51;102161.28;;;1.99;61.73
79370;BME280;68835;53.096;17.932;2023-04-03T07:16:20;102165.87;;;2.03;61.40
79370;BME280;68835;53.096;17.932;2023-04-03T07:18:47;102170.05;;;2.09;61.04
79370;BME280;68835;53.096;17.932;2023-04-03T07:21:14;102169.58;;;2.14;60.74
79370;BME280;68835;53.096;17.932;2023-04-03T07:23:42;102175.23;;;2.19;60.59
79370;BME280;68835;53.096;17.932;2023-04-03T07:26:09;102181.02;;;2.20;59.60
79370;BME280;68835;53.096;17.932;2023-04-03T07:28:36;102176.96;;;2.19;59.11
79370;BME280;68835;53.096;17.932;2023-04-03T07:31:07;102178.73;;;2.23;59.68
79370;BME280;68835;53.096;17.932;2023-04-03T07:33:36;102185.52;;;2.31;58.43
79370;BME280;68835;53.096;17.932;2023-04-03T07:36:04;102182.02;;;2.38;58.99
79370;BME280;68835;53.096;17.932;2023-04-03T07:38:35;102185.42;;;2.48;58.74
79370;BME280;68835;53.096;17.932;2023-04-03T07:41:04;102186.60;;;2.50;58.53
79370;BME280;68835;53.096;17.932;2023-04-03T07:43:32;102186.73;;;2.52;58.56
79370;BME280;68835;53.096;17.932;2023-04-03T07:46:01;102185.09;;;2.53;57.43
79370;BME280;68835;53.096;17.932;2023-04-03T07:48:29;102189.30;;;2.59;58.44
79370;BME280;68835;53.096;17.932;2023-04-03T07:51:00;102189.05;;;2.71;57.80
79370;BME280;68835;53.096;17.932;2023-04-03T07:53:28;102184.83;;;2.84;56.10
79370;BME280;68835;53.096;17.932;2023-04-03T07:55:57;102186.69;;;2.94;55.92
79370;BME280;68835;53.096;17.932;2023-04-03T07:58:25;102188.54;;;3.07;55.06
79370;BME280;68835;53.096;17.932;2023-04-03T08:00:52;102183.43;;;3.22;55.33
79370;BME280;68835;53.096;17.932;2023-04-03T08:03:20;102182.91;;;3.32;55.10
79370;BME280;68835;53.096;17.932;2023-04-03T08:05:49;102177.60;;;3.50;54.16
79370;BME280;68835;53.096;17.932;2023-04-03T08:08:20;102175.40;;;3.77;54.38
79370;BME280;68835;53.096;17.932;2023-04-03T08:10:52;102183.29;;;4.04;52.94
79370;BME280;68835;53.096;17.932;2023-04-03T08:13:21;102186.90;;;4.30;51.35
79370;BME280;68835;53.096;17.932;2023-04-03T08:15:49;102187.64;;;4.61;51.70
79370;BME280;68835;53.096;17.932;2023-04-03T08:18:17;102195.23;;;4.91;50.34
79370;BME280;68835;53.096;17.932;2023-04-03T08:20:45;102193.41;;;5.17;50.28
79370;BME280;68835;53.096;17.932;2023-04-03T08:23:12;102191.52;;;5.43;48.99
79370;BME280;68835;53.096;17.932;2023-04-03T08:25:41;102189.48;;;5.63;48.40
79370;BME280;68835;53.096;17.932;2023-04-03T08:28:10;102191.58;;;5.93;48.42
79370;BME280;68835;53.096;17.932;2023-04-03T08:30:42;102195.92;;;6.20;46.04
79370;BME280;68835;53.096;17.932;2023-04-03T08:33:10;102189.83;;;6.33;46.28
79370;BME280;68835;53.096;17.932;2023-04-03T08:35:41;102195.21;;;6.57;45.57
79370;BME280;68835;53.096;17.932;2023-04-03T08:38:09;102198.45;;;6.81;45.38
79370;BME280;68835;53.096;17.932;2023-04-03T08:40:37;102200.39;;;6.99;44.97
79370;BME280;68835;53.096;17.932;2023-04-03T08:46:11;102204.92;;;7.37;43.21
79370;BME280;68835;53.096;17.932;2023-04-03T08:48:42;102201.61;;;7.36;43.66
79370;BME280;68835;53.096;17.932;2023-04-03T08:51:14;102200.54;;;7.39;43.96
79370;BME280;68835;53.096;17.932;2023-04-03T08:53:56;102199.56;;;7.60;44.08
79370;BME280;68835;53.096;17.932;2023-04-03T08:56:26;102199.61;;;7.73;41.06
79370;BME280;68835;53.096;17.932;2023-04-03T08:58:59;102192.65;;;7.57;42.32
79370;BME280;68835;53.096;17.932;2023-04-03T09:01:34;102198.02;;;7.57;41.59
79370;BME280;68835;53.096;17.932;2023-04-03T09:04:10;102190.52;;;7.56;41.27
79370;BME280;68835;53.096;17.932;2023-04-03T09:06:39;102193.08;;;7.71;41.97
79370;BME280;68835;53.096;17.932;2023-04-03T09:09:24;102196.33;;;7.85;41.23
79370;BME280;68835;53.096;17.932;2023-04-03T09:14:51;102198.11;;;7.90;38.08
79370;BME280;68835;53.096;17.932;2023-04-03T09:22:51;102200.36;;;7.36;38.97
79370;BME280;68835;53.096;17.932;2023-04-03T09:27:50;102200.33;;;6.83;38.81
79370;BME280;68835;53.096;17.932;2023-04-03T09:30:21;102199.39;;;7.08;39.54
79370;BME280;68835;53.096;17.932;2023-04-03T09:32:53;102195.05;;;7.19;39.26
79370;BME280;68835;53.096;17.932;2023-04-03T09:35:41;102194.77;;;7.43;39.19
79370;BME280;68835;53.096;17.932;2023-04-03T09:41:22;102199.42;;;7.84;39.37
79370;BME280;68835;53.096;17.932;2023-04-03T09:43:32;102188.80;;;8.12;38.37
79370;BME280;68835;53.096;17.932;2023-04-03T09:46:33;102193.13;;;8.28;37.86
79370;BME280;68835;53.096;17.932;2023-04-03T09:49:03;102197.09;;;8.07;37.35
79370;BME280;68835;53.096;17.932;2023-04-03T09:51:32;102192.05;;;7.64;38.01
79370;BME280;68835;53.096;17.932;2023-04-03T09:53:59;102184.63;;;7.42;38.84
79370;BME280;68835;53.096;17.932;2023-04-03T09:56:28;102193.84;;;7.12;39.46
79370;BME280;68835;53.096;17.932;2023-04-03T10:01:34;102207.91;;;6.47;39.42
79370;BME280;68835;53.096;17.932;2023-04-03T10:06:36;102200.47;;;7.23;38.37
79370;BME280;68835;53.096;17.932;2023-04-03T10:09:12;102195.88;;;7.71;38.29
79370;BME280;68835;53.096;17.932;2023-04-03T10:14:24;102196.50;;;8.78;36.74
79370;BME280;68835;53.096;17.932;2023-04-03T10:16:59;102192.26;;;8.64;36.81
79370;BME280;68835;53.096;17.932;2023-04-03T10:19:50;102192.41;;;8.31;38.18
79370;BME280;68835;53.096;17.932;2023-04-03T10:25:12;102194.43;;;7.47;37.04
79370;BME280;68835;53.096;17.932;2023-04-03T10:27:47;102203.67;;;7.06;37.43
79370;BME280;68835;53.096;17.932;2023-04-03T10:33:23;102198.61;;;7.44;37.83
79370;BME280;68835;53.096;17.932;2023-04-03T10:42:08;102196.08;;;9.07;35.91
79370;BME280;68835;53.096;17.932;2023-04-03T10:50:38;102188.86;;;7.86;36.00
79370;BME280;68835;53.096;17.932;2023-04-03T10:58:44;102182.14;;;11.02;34.31
79370;BME280;68835;53.096;17.932;2023-04-03T11:01:17;102191.52;;;10.60;34.87
79370;BME280;68835;53.096;17.932;2023-04-03T11:03:50;102191.16;;;10.61;33.46
79370;BME280;68835;53.096;17.932;2023-04-03T11:06:21;102190.77;;;10.92;33.45
79370;BME280;68835;53.096;17.932;2023-04-03T11:09:07;102181.06;;;11.90;32.27
79370;BME280;68835;53.096;17.932;2023-04-03T11:11:39;102175.48;;;12.93;30.94
79370;BME280;68835;53.096;17.932;2023-04-03T11:16:48;102175.92;;;11.69;30.07
79370;BME280;68835;53.096;17.932;2023-04-03T11:19:34;102189.38;;;10.71;31.78
79370;BME280;68835;53.096;17.932;2023-04-03T11:24:42;102177.06;;;9.31;32.08
79370;BME280;68835;53.096;17.932;2023-04-03T11:27:16;102182.06;;;8.89;34.00
79370;BME280;68835;53.096;17.932;2023-04-03T11:29:50;102172.61;;;9.29;33.52
79370;BME280;68835;53.096;17.932;2023-04-03T11:35:29;102160.61;;;12.06;32.03
79370;BME280;68835;53.096;17.932;2023-04-03T11:38:01;102155.88;;;13.44;29.52
79370;BME280;68835;53.096;17.932;2023-04-03T11:40:35;102157.26;;;14.55;28.30
79370;BME280;68835;53.096;17.932;2023-04-03T11:43:27;102150.45;;;15.29;26.18
79370;BME280;68835;53.096;17.932;2023-04-03T11:45:59;102150.48;;;15.89;26.14
79370;BME280;68835;53.096;17.932;2023-04-03T11:51:47;102146.32;;;16.19;25.68
79370;BME280;68835;53.096;17.932;2023-04-03T11:53:49;102143.31;;;15.11;25.81
79370;BME280;68835;53.096;17.932;2023-04-03T12:01:58;102149.98;;;14.52;26.98
79370;BME280;68835;53.096;17.932;2023-04-03T12:04:27;102152.48;;;12.95;27.29
79370;BME280;68835;53.096;17.932;2023-04-03T12:07:01;102154.17;;;11.88;28.94
79370;BME280;68835;53.096;17.932;2023-04-03T12:15:58;102147.48;;;13.07;28.46
79370;BME280;68835;53.096;17.932;2023-04-03T12:18:40;102145.52;;;14.28;26.65
79370;BME280;68835;53.096;17.932;2023-04-03T12:21:10;102148.65;;;13.27;28.10
79370;BME280;68835;53.096;17.932;2023-04-03T12:24:04;102143.27;;;12.33;28.02
79370;BME280;68835;53.096;17.932;2023-04-03T12:26:34;102145.15;;;11.24;28.95
79370;BME280;68835;53.096;17.932;2023-04-03T12:40:42;102135.52;;;11.87;29.28
79370;BME280;68835;53.096;17.932;2023-04-03T12:48:46;102118.89;;;12.93;27.71
79370;BME280;68835;53.096;17.932;2023-04-03T12:51:21;102124.61;;;11.78;28.64
79370;BME280;68835;53.096;17.932;2023-04-03T12:59:43;102128.83;;;8.98;31.74
79370;BME280;68835;53.096;17.932;2023-04-03T13:04:53;102128.41;;;8.40;32.75
79370;BME280;68835;53.096;17.932;2023-04-03T13:09:59;102123.06;;;12.68;28.97
79370;BME280;68835;53.096;17.932;2023-04-03T13:12:27;102116.33;;;13.45;28.28
79370;BME280;68835;53.096;17.932;2023-04-03T13:14:57;102121.33;;;12.47;28.46
79370;BME280;68835;53.096;17.932;2023-04-03T13:17:25;102125.72;;;11.37;29.17
79370;BME280;68835;53.096;17.932;2023-04-03T13:19:52;102131.71;;;10.47;29.89
79370;BME280;68835;53.096;17.932;2023-04-03T13:22:25;102130.61;;;9.94;30.37
79370;BME280;68835;53.096;17.932;2023-04-03T13:24:55;102126.47;;;9.96;30.25
79370;BME280;68835;53.096;17.932;2023-04-03T13:27:23;102119.96;;;11.13;29.88
79370;BME280;68835;53.096;17.932;2023-04-03T13:29:54;102114.20;;;11.50;29.26
79370;BME280;68835;53.096;17.932;2023-04-03T13:32:25;102113.52;;;12.50;28.76
79370;BME280;68835;53.096;17.932;2023-04-03T13:34:54;102113.61;;;11.60;28.60
79370;BME280;68835;53.096;17.932;2023-04-03T13:37:29;102104.59;;;12.52;28.52
79370;BME280;68835;53.096;17.932;2023-04-03T13:42:38;102104.65;;;12.47;27.84
79370;BME280;68835;53.096;17.932;2023-04-03T13:45:22;102104.74;;;11.26;28.42
79370;BME280;68835;53.096;17.932;2023-04-03T13:47:52;102111.42;;;10.31;29.89
79370;BME280;68835;53.096;17.932;2023-04-03T13:50:24;102108.90;;;9.58;30.54
79370;BME280;68835;53.096;17.932;2023-04-03T13:53:03;102101.15;;;8.91;30.86
79370;BME280;68835;53.096;17.932;2023-04-03T13:55:34;102104.80;;;8.42;31.75
79370;BME280;68835;53.096;17.932;2023-04-03T13:58:22;102107.02;;;8.08;31.97
79370;BME280;68835;53.096;17.932;2023-04-03T14:03:34;102102.49;;;7.71;33.06
79370;BME280;68835;53.096;17.932;2023-04-03T14:06:06;102108.36;;;7.38;33.74
79370;BME280;68835;53.096;17.932;2023-04-03T14:08:33;102105.98;;;7.09;34.98
79370;BME280;68835;53.096;17.932;2023-04-03T14:11:02;102107.03;;;6.79;35.42
79370;BME280;68835;53.096;17.932;2023-04-03T14:13:31;102107.40;;;6.51;36.20
79370;BME280;68835;53.096;17.932;2023-04-03T14:15:59;102104.17;;;6.38;36.28
79370;BME280;68835;53.096;17.932;2023-04-03T14:18:27;102110.96;;;6.24;36.27
79370;BME280;68835;53.096;17.932;2023-04-03T14:20:55;102106.64;;;6.10;36.77
79370;BME280;68835;53.096;17.932;2023-04-03T14:23:22;102101.95;;;6.17;37.07
79370;BME280;68835;53.096;17.932;2023-04-03T14:25:49;102097.33;;;6.51;37.39
79370;BME280;68835;53.096;17.932;2023-04-03T14:28:21;102094.00;;;6.76;37.14
79370;BME280;68835;53.096;17.932;2023-04-03T14:30:50;102092.09;;;6.65;36.76
79370;BME280;68835;53.096;17.932;2023-04-03T14:33:22;102093.31;;;6.36;37.45
79370;BME280;68835;53.096;17.932;2023-04-03T14:35:52;102099.50;;;6.14;38.34
79370;BME280;68835;53.096;17.932;2023-04-03T14:38:26;102097.30;;;5.91;39.31
79370;BME280;68835;53.096;17.932;2023-04-03T14:40:55;102099.70;;;5.67;40.08
79370;BME280;68835;53.096;17.932;2023-04-03T14:43:22;102105.74;;;5.46;40.69
79370;BME280;68835;53.096;17.932;2023-04-03T14:45:50;102107.30;;;5.30;41.31
79370;BME280;68835;53.096;17.932;2023-04-03T14:48:23;102104.88;;;5.13;42.26